sensor_id;sensor_type;location;lat;lon;timestamp;P1;durP1;ratioP1;P2;durP2;ratioP2
3625;SDS011;1827;50.534;8.316;2024-03-02T00:00:50;37.13;;;14.37;;
3625;SDS011;1827;50.534;8.316;2024-03-02T00:03:16;41.03;;;15.33;;
3625;SDS011;1827;50.534;8.316;2024-03-02T00:05:43;35.83;;;13.60;;
3625;SDS011;1827;50.534;8.316;2024-03-02T00:08:13;33.23;;;13.60;;
3625;SDS011;1827;50.534;8.316;2024-03-02T00:10:51;35.87;;;13.37;;
3625;SDS011;1827;50.534;8.316;2024-03-02T00:13:21;36.87;;;13.80;;
3625;SDS011;1827;50.534;8.316;2024-03-02T00:15:48;32.30;;;11.77;;
3625;SDS011;1827;50.534;8.316;2024-03-02T00:18:31;34.30;;;10.90;;
3625;SDS011;1827;50.534;8.316;2024-03-02T00:20:59;38.73;;;11.47;;
3625;SDS011;1827;50.534;8.316;2024-03-02T00:23:32;27.47;;;9.67;;
3625;SDS011;1827;50.534;8.316;2024-03-02T00:26:00;26.80;;;10.40;;
3625;SDS011;1827;50.534;8.316;2024-03-02T00:28:29;37.00;;;13.33;;
3625;SDS011;1827;50.534;8.316;2024-03-02T00:31:12;36.17;;;14.77;;
3625;SDS011;1827;50.534;8.316;2024-03-02T00:36:08;34.60;;;12.90;;
3625;SDS011;1827;50.534;8.316;2024-03-02T00:38:42;29.07;;;12.10;;
3625;SDS011;1827;50.534;8.316;2024-03-02T00:41:15;33.73;;;12.73;;
3625;SDS011;1827;50.534;8.316;2024-03-02T00:44:03;34.47;;;13.80;;
3625;SDS011;1827;50.534;8.316;2024-03-02T00:46:34;32.50;;;12.53;;
3625;SDS011;1827;50.534;8.316;2024-03-02T00:49:01;31.90;;;12.63;;
3625;SDS011;1827;50.534;8.316;2024-03-02T00:51:32;26.07;;;11.40;;
3625;SDS011;1827;50.534;8.316;2024-03-02T00:54:00;29.73;;;11.60;;
3625;SDS011;1827;50.534;8.316;2024-03-02T00:56:29;27.57;;;11.50;;
3625;SDS011;1827;50.534;8.316;2024-03-02T00:58:55;29.17;;;12.40;;
3625;SDS011;1827;50.534;8.316;2024-03-02T01:01:21;31.90;;;12.33;;
3625;SDS011;1827;50.534;8.316;2024-03-02T01:03:47;31.87;;;12.40;;
3625;SDS011;1827;50.534;8.316;2024-03-02T01:06:14;38.77;;;13.37;;
3625;SDS011;1827;50.534;8.316;2024-03-02T01:08:43;35.00;;;12.63;;
3625;SDS011;1827;50.534;8.316;2024-03-02T01:11:09;31.80;;;12.70;;
3625;SDS011;1827;50.534;8.316;2024-03-02T01:13:35;33.70;;;13.30;;
3625;SDS011;1827;50.534;8.316;2024-03-02T01:16:01;35.57;;;12.93;;
3625;SDS011;1827;50.534;8.316;2024-03-02T01:18:27;33.07;;;14.00;;
3625;SDS011;1827;50.534;8.316;2024-03-02T01:20:53;33.27;;;13.27;;
3625;SDS011;1827;50.534;8.316;2024-03-02T01:23:21;33.00;;;13.37;;
3625;SDS011;1827;50.534;8.316;2024-03-02T01:25:47;35.80;;;14.50;;
3625;SDS011;1827;50.534;8.316;2024-03-02T01:28:14;31.23;;;13.47;;
3625;SDS011;1827;50.534;8.316;2024-03-02T01:30:40;28.27;;;12.03;;
3625;SDS011;1827;50.534;8.316;2024-03-02T01:33:06;34.00;;;12.43;;
3625;SDS011;1827;50.534;8.316;2024-03-02T01:35:32;32.20;;;13.07;;
3625;SDS011;1827;50.534;8.316;2024-03-02T01:37:58;29.23;;;12.40;;
3625;SDS011;1827;50.534;8.316;2024-03-02T01:40:24;35.17;;;14.30;;
3625;SDS011;1827;50.534;8.316;2024-03-02T01:42:53;36.17;;;13.57;;
3625;SDS011;1827;50.534;8.316;2024-03-02T01:45:21;32.70;;;13.03;;
3625;SDS011;1827;50.534;8.316;2024-03-02T01:47:47;38.77;;;13.13;;
3625;SDS011;1827;50.534;8.316;2024-03-02T01:50:12;36.53;;;14.00;;
3625;SDS011;1827;50.534;8.316;2024-03-02T01:52:38;32.43;;;12.63;;
3625;SDS011;1827;50.534;8.316;2024-03-02T01:55:05;37.07;;;13.23;;
3625;SDS011;1827;50.534;8.316;2024-03-02T01:57:32;32.33;;;13.50;;
3625;SDS011;1827;50.534;8.316;2024-03-02T01:59:58;31.70;;;12.43;;
3625;SDS011;1827;50.534;8.316;2024-03-02T02:02:25;38.63;;;13.90;;
3625;SDS011;1827;50.534;8.316;2024-03-02T02:04:50;32.40;;;13.17;;
3625;SDS011;1827;50.534;8.316;2024-03-02T02:07:16;27.87;;;11.77;;
3625;SDS011;1827;50.534;8.316;2024-03-02T02:09:42;30.20;;;12.13;;
3625;SDS011;1827;50.534;8.316;2024-03-02T02:12:08;27.70;;;11.70;;
3625;SDS011;1827;50.534;8.316;2024-03-02T02:14:37;28.30;;;12.20;;
3625;SDS011;1827;50.534;8.316;2024-03-02T02:17:04;34.57;;;13.63;;
3625;SDS011;1827;50.534;8.316;2024-03-02T02:19:29;30.50;;;12.60;;
3625;SDS011;1827;50.534;8.316;2024-03-02T02:21:55;31.50;;;12.90;;
3625;SDS011;1827;50.534;8.316;2024-03-02T02:24:21;36.97;;;13.83;;
3625;SDS011;1827;50.534;8.316;2024-03-02T02:26:46;34.10;;;13.67;;
3625;SDS011;1827;50.534;8.316;2024-03-02T02:29:12;34.80;;;13.53;;
3625;SDS011;1827;50.534;8.316;2024-03-02T02:31:38;38.80;;;13.60;;
3625;SDS011;1827;50.534;8.316;2024-03-02T02:34:05;34.53;;;13.40;;
3625;SDS011;1827;50.534;8.316;2024-03-02T02:36:34;32.60;;;13.20;;
3625;SDS011;1827;50.534;8.316;2024-03-02T02:39:05;31.70;;;12.50;;
3625;SDS011;1827;50.534;8.316;2024-03-02T02:41:34;32.33;;;13.20;;
3625;SDS011;1827;50.534;8.316;2024-03-02T02:43:59;38.20;;;13.83;;
3625;SDS011;1827;50.534;8.316;2024-03-02T02:46:25;33.83;;;13.43;;
3625;SDS011;1827;50.534;8.316;2024-03-02T02:48:51;34.83;;;12.53;;
3625;SDS011;1827;50.534;8.316;2024-03-02T02:51:18;34.07;;;14.03;;
3625;SDS011;1827;50.534;8.316;2024-03-02T02:53:44;30.37;;;12.23;;
3625;SDS011;1827;50.534;8.316;2024-03-02T02:56:10;34.90;;;12.53;;
3625;SDS011;1827;50.534;8.316;2024-03-02T02:58:37;32.60;;;12.43;;
3625;SDS011;1827;50.534;8.316;2024-03-02T03:01:05;41.03;;;12.50;;
3625;SDS011;1827;50.534;8.316;2024-03-02T03:03:33;29.60;;;12.07;;
3625;SDS011;1827;50.534;8.316;2024-03-02T03:05:59;32.90;;;13.10;;
3625;SDS011;1827;50.534;8.316;2024-03-02T03:08:25;31.47;;;13.47;;
3625;SDS011;1827;50.534;8.316;2024-03-02T03:10:51;32.90;;;13.20;;
3625;SDS011;1827;50.534;8.316;2024-03-02T03:13:18;36.77;;;13.60;;
3625;SDS011;1827;50.534;8.316;2024-03-02T03:15:43;29.93;;;12.40;;
3625;SDS011;1827;50.534;8.316;2024-03-02T03:18:10;31.90;;;13.57;;
3625;SDS011;1827;50.534;8.316;2024-03-02T03:20:36;32.70;;;13.30;;
3625;SDS011;1827;50.534;8.316;2024-03-02T03:23:02;31.30;;;11.80;;
3625;SDS011;1827;50.534;8.316;2024-03-02T03:25:29;29.37;;;12.00;;
3625;SDS011;1827;50.534;8.316;2024-03-02T03:27:55;32.27;;;14.00;;
3625;SDS011;1827;50.534;8.316;2024-03-02T03:30:22;27.23;;;11.97;;
3625;SDS011;1827;50.534;8.316;2024-03-02T03:32:49;31.03;;;13.20;;
3625;SDS011;1827;50.534;8.316;2024-03-02T03:35:15;31.10;;;12.17;;
3625;SDS011;1827;50.534;8.316;2024-03-02T03:37:41;28.87;;;11.93;;
3625;SDS011;1827;50.534;8.316;2024-03-02T03:40:07;28.87;;;12.53;;
3625;SDS011;1827;50.534;8.316;2024-03-02T03:42:38;30.27;;;12.63;;
3625;SDS011;1827;50.534;8.316;2024-03-02T03:45:05;30.17;;;12.60;;
3625;SDS011;1827;50.534;8.316;2024-03-02T03:47:32;32.43;;;12.83;;
3625;SDS011;1827;50.534;8.316;2024-03-02T03:49:58;32.77;;;13.90;;
3625;SDS011;1827;50.534;8.316;2024-03-02T03:52:24;33.30;;;11.83;;
3625;SDS011;1827;50.534;8.316;2024-03-02T03:54:51;31.77;;;11.50;;
3625;SDS011;1827;50.534;8.316;2024-03-02T03:57:18;38.43;;;13.30;;
3625;SDS011;1827;50.534;8.316;2024-03-02T03:59:44;34.67;;;14.33;;
3625;SDS011;1827;50.534;8.316;2024-03-02T04:02:11;35.30;;;15.20;;
3625;SDS011;1827;50.534;8.316;2024-03-02T04:04:38;34.30;;;15.53;;
3625;SDS011;1827;50.534;8.316;2024-03-02T04:07:04;33.83;;;14.40;;
3625;SDS011;1827;50.534;8.316;2024-03-02T04:09:31;36.07;;;14.40;;
3625;SDS011;1827;50.534;8.316;2024-03-02T04:11:57;36.47;;;14.53;;
3625;SDS011;1827;50.534;8.316;2024-03-02T04:14:23;34.27;;;15.57;;
3625;SDS011;1827;50.534;8.316;2024-03-02T04:16:49;33.07;;;13.60;;
3625;SDS011;1827;50.534;8.316;2024-03-02T04:19:15;39.17;;;14.90;;
3625;SDS011;1827;50.534;8.316;2024-03-02T04:21:41;33.40;;;14.80;;
3625;SDS011;1827;50.534;8.316;2024-03-02T04:24:07;36.93;;;16.20;;
3625;SDS011;1827;50.534;8.316;2024-03-02T04:26:33;39.53;;;17.07;;
3625;SDS011;1827;50.534;8.316;2024-03-02T04:28:59;37.23;;;15.30;;
3625;SDS011;1827;50.534;8.316;2024-03-02T04:31:25;41.37;;;16.60;;
3625;SDS011;1827;50.534;8.316;2024-03-02T04:33:51;40.57;;;15.60;;
3625;SDS011;1827;50.534;8.316;2024-03-02T04:36:19;42.43;;;15.43;;
3625;SDS011;1827;50.534;8.316;2024-03-02T04:38:45;33.07;;;13.93;;
3625;SDS011;1827;50.534;8.316;2024-03-02T04:41:12;36.07;;;15.97;;
3625;SDS011;1827;50.534;8.316;2024-03-02T04:43:38;33.57;;;14.07;;
3625;SDS011;1827;50.534;8.316;2024-03-02T04:46:04;39.70;;;14.17;;
3625;SDS011;1827;50.534;8.316;2024-03-02T04:48:33;35.77;;;14.70;;
3625;SDS011;1827;50.534;8.316;2024-03-02T04:50:59;38.23;;;14.27;;
3625;SDS011;1827;50.534;8.316;2024-03-02T04:53:25;33.67;;;13.40;;
3625;SDS011;1827;50.534;8.316;2024-03-02T04:55:51;38.47;;;15.40;;
3625;SDS011;1827;50.534;8.316;2024-03-02T04:58:35;32.93;;;14.17;;
3625;SDS011;1827;50.534;8.316;2024-03-02T05:01:01;31.13;;;13.80;;
3625;SDS011;1827;50.534;8.316;2024-03-02T05:03:26;32.20;;;14.03;;
3625;SDS011;1827;50.534;8.316;2024-03-02T05:05:54;34.20;;;14.20;;
3625;SDS011;1827;50.534;8.316;2024-03-02T05:08:21;33.53;;;14.10;;
3625;SDS011;1827;50.534;8.316;2024-03-02T05:10:46;34.37;;;15.03;;
3625;SDS011;1827;50.534;8.316;2024-03-02T05:13:14;34.57;;;14.30;;
3625;SDS011;1827;50.534;8.316;2024-03-02T05:15:40;30.97;;;13.43;;
3625;SDS011;1827;50.534;8.316;2024-03-02T05:18:06;32.63;;;13.70;;
3625;SDS011;1827;50.534;8.316;2024-03-02T05:20:32;34.37;;;12.47;;
3625;SDS011;1827;50.534;8.316;2024-03-02T05:22:58;33.37;;;13.97;;
3625;SDS011;1827;50.534;8.316;2024-03-02T05:25:27;30.37;;;11.90;;
3625;SDS011;1827;50.534;8.316;2024-03-02T05:27:54;32.73;;;13.17;;
3625;SDS011;1827;50.534;8.316;2024-03-02T05:30:20;32.07;;;13.77;;
3625;SDS011;1827;50.534;8.316;2024-03-02T05:32:46;37.53;;;12.27;;
3625;SDS011;1827;50.534;8.316;2024-03-02T05:35:12;33.43;;;13.47;;
3625;SDS011;1827;50.534;8.316;2024-03-02T05:37:38;31.70;;;12.90;;
3625;SDS011;1827;50.534;8.316;2024-03-02T05:40:04;31.97;;;12.87;;
3625;SDS011;1827;50.534;8.316;2024-03-02T05:42:31;32.20;;;13.00;;
3625;SDS011;1827;50.534;8.316;2024-03-02T05:44:57;31.57;;;12.70;;
3625;SDS011;1827;50.534;8.316;2024-03-02T05:47:23;32.23;;;12.40;;
3625;SDS011;1827;50.534;8.316;2024-03-02T05:49:48;30.23;;;12.77;;
3625;SDS011;1827;50.534;8.316;2024-03-02T05:52:14;30.03;;;11.20;;
3625;SDS011;1827;50.534;8.316;2024-03-02T05:54:43;27.80;;;11.00;;
3625;SDS011;1827;50.534;8.316;2024-03-02T05:57:09;30.60;;;12.33;;
3625;SDS011;1827;50.534;8.316;2024-03-02T05:59:53;31.00;;;12.20;;
3625;SDS011;1827;50.534;8.316;2024-03-02T06:02:23;36.73;;;13.23;;
3625;SDS011;1827;50.534;8.316;2024-03-02T06:04:49;31.03;;;12.20;;
3625;SDS011;1827;50.534;8.316;2024-03-02T06:07:15;31.00;;;12.30;;
3625;SDS011;1827;50.534;8.316;2024-03-02T06:09:41;28.10;;;11.90;;
3625;SDS011;1827;50.534;8.316;2024-03-02T06:12:07;29.50;;;12.10;;
3625;SDS011;1827;50.534;8.316;2024-03-02T06:14:33;32.77;;;13.77;;
3625;SDS011;1827;50.534;8.316;2024-03-02T06:17:02;35.43;;;13.07;;
3625;SDS011;1827;50.534;8.316;2024-03-02T06:19:28;34.53;;;14.03;;
3625;SDS011;1827;50.534;8.316;2024-03-02T06:21:56;35.93;;;14.40;;
3625;SDS011;1827;50.534;8.316;2024-03-02T06:24:24;38.90;;;16.60;;
3625;SDS011;1827;50.534;8.316;2024-03-02T06:26:51;51.17;;;22.33;;
3625;SDS011;1827;50.534;8.316;2024-03-02T06:29:20;58.00;;;26.03;;
3625;SDS011;1827;50.534;8.316;2024-03-02T06:31:47;76.93;;;33.83;;
3625;SDS011;1827;50.534;8.316;2024-03-02T06:34:16;58.60;;;26.87;;
3625;SDS011;1827;50.534;8.316;2024-03-02T06:36:42;45.60;;;19.80;;
3625;SDS011;1827;50.534;8.316;2024-03-02T06:39:11;42.83;;;18.20;;
3625;SDS011;1827;50.534;8.316;2024-03-02T06:41:37;40.47;;;17.27;;
3625;SDS011;1827;50.534;8.316;2024-03-02T06:44:16;41.90;;;16.30;;
3625;SDS011;1827;50.534;8.316;2024-03-02T06:46:43;40.63;;;16.30;;
3625;SDS011;1827;50.534;8.316;2024-03-02T06:49:12;39.70;;;17.57;;
3625;SDS011;1827;50.534;8.316;2024-03-02T06:51:38;44.00;;;19.40;;
3625;SDS011;1827;50.534;8.316;2024-03-02T06:54:06;45.43;;;18.90;;
3625;SDS011;1827;50.534;8.316;2024-03-02T06:56:32;39.63;;;17.53;;
3625;SDS011;1827;50.534;8.316;2024-03-02T06:58:58;39.20;;;16.93;;
3625;SDS011;1827;50.534;8.316;2024-03-02T07:01:24;40.77;;;17.43;;
3625;SDS011;1827;50.534;8.316;2024-03-02T07:03:51;41.23;;;17.80;;
3625;SDS011;1827;50.534;8.316;2024-03-02T07:06:17;38.80;;;17.40;;
3625;SDS011;1827;50.534;8.316;2024-03-02T07:08:43;38.93;;;17.63;;
3625;SDS011;1827;50.534;8.316;2024-03-02T07:11:09;43.87;;;17.13;;
3625;SDS011;1827;50.534;8.316;2024-03-02T07:13:35;47.97;;;18.07;;
3625;SDS011;1827;50.534;8.316;2024-03-02T07:16:01;41.97;;;18.77;;
3625;SDS011;1827;50.534;8.316;2024-03-02T07:18:28;45.10;;;18.37;;
3625;SDS011;1827;50.534;8.316;2024-03-02T07:20:54;42.00;;;19.53;;
3625;SDS011;1827;50.534;8.316;2024-03-02T07:23:20;41.50;;;18.57;;
3625;SDS011;1827;50.534;8.316;2024-03-02T07:25:50;48.37;;;20.50;;
3625;SDS011;1827;50.534;8.316;2024-03-02T07:28:16;51.73;;;21.97;;
3625;SDS011;1827;50.534;8.316;2024-03-02T07:30:42;46.50;;;20.00;;
3625;SDS011;1827;50.534;8.316;2024-03-02T07:33:08;44.50;;;18.77;;
3625;SDS011;1827;50.534;8.316;2024-03-02T07:35:34;46.90;;;20.40;;
3625;SDS011;1827;50.534;8.316;2024-03-02T07:38:01;46.60;;;20.13;;
3625;SDS011;1827;50.534;8.316;2024-03-02T07:40:27;45.47;;;19.37;;
3625;SDS011;1827;50.534;8.316;2024-03-02T07:42:54;46.10;;;20.83;;
3625;SDS011;1827;50.534;8.316;2024-03-02T07:45:23;42.90;;;20.30;;
3625;SDS011;1827;50.534;8.316;2024-03-02T07:47:49;45.77;;;20.03;;
3625;SDS011;1827;50.534;8.316;2024-03-02T07:50:15;44.30;;;19.40;;
3625;SDS011;1827;50.534;8.316;2024-03-02T07:52:41;51.07;;;22.57;;
3625;SDS011;1827;50.534;8.316;2024-03-02T07:55:10;48.27;;;21.33;;
3625;SDS011;1827;50.534;8.316;2024-03-02T07:57:36;44.63;;;20.33;;
3625;SDS011;1827;50.534;8.316;2024-03-02T08:00:03;48.37;;;18.73;;
3625;SDS011;1827;50.534;8.316;2024-03-02T08:02:37;42.33;;;17.97;;
3625;SDS011;1827;50.534;8.316;2024-03-02T08:05:03;42.50;;;18.67;;
3625;SDS011;1827;50.534;8.316;2024-03-02T08:07:30;39.13;;;17.87;;
3625;SDS011;1827;50.534;8.316;2024-03-02T08:09:56;36.63;;;17.13;;
3625;SDS011;1827;50.534;8.316;2024-03-02T08:44:17;35.67;;;15.40;;
3625;SDS011;1827;50.534;8.316;2024-03-02T08:46:43;35.93;;;15.17;;
3625;SDS011;1827;50.534;8.316;2024-03-02T08:49:09;34.33;;;15.03;;
3625;SDS011;1827;50.534;8.316;2024-03-02T08:51:35;35.87;;;16.40;;
3625;SDS011;1827;50.534;8.316;2024-03-02T08:54:01;34.17;;;15.57;;
3625;SDS011;1827;50.534;8.316;2024-03-02T08:56:29;34.80;;;15.97;;
3625;SDS011;1827;50.534;8.316;2024-03-02T08:58:56;37.23;;;15.90;;
3625;SDS011;1827;50.534;8.316;2024-03-02T09:01:22;38.10;;;16.93;;
3625;SDS011;1827;50.534;8.316;2024-03-02T09:03:52;35.90;;;14.90;;
3625;SDS011;1827;50.534;8.316;2024-03-02T09:06:18;37.47;;;16.67;;
3625;SDS011;1827;50.534;8.316;2024-03-02T09:08:45;37.20;;;16.03;;
3625;SDS011;1827;50.534;8.316;2024-03-02T09:11:12;36.87;;;16.70;;
3625;SDS011;1827;50.534;8.316;2024-03-02T09:13:38;36.93;;;15.63;;
3625;SDS011;1827;50.534;8.316;2024-03-02T09:16:04;34.43;;;15.43;;
3625;SDS011;1827;50.534;8.316;2024-03-02T09:18:31;34.30;;;15.80;;
3625;SDS011;1827;50.534;8.316;2024-03-02T09:20:57;33.37;;;15.37;;
3625;SDS011;1827;50.534;8.316;2024-03-02T09:23:27;37.53;;;15.70;;
3625;SDS011;1827;50.534;8.316;2024-03-02T09:25:53;34.60;;;15.60;;
3625;SDS011;1827;50.534;8.316;2024-03-02T09:28:19;33.00;;;15.30;;
3625;SDS011;1827;50.534;8.316;2024-03-02T09:30:45;36.00;;;15.70;;
3625;SDS011;1827;50.534;8.316;2024-03-02T09:33:10;34.60;;;14.90;;
3625;SDS011;1827;50.534;8.316;2024-03-02T09:35:36;38.40;;;15.73;;
3625;SDS011;1827;50.534;8.316;2024-03-02T09:38:02;33.60;;;15.37;;
3625;SDS011;1827;50.534;8.316;2024-03-02T09:40:28;34.17;;;15.70;;
3625;SDS011;1827;50.534;8.316;2024-03-02T09:42:54;34.87;;;16.23;;
3625;SDS011;1827;50.534;8.316;2024-03-02T09:45:24;38.67;;;15.60;;
3625;SDS011;1827;50.534;8.316;2024-03-02T09:47:51;31.97;;;13.87;;
3625;SDS011;1827;50.534;8.316;2024-03-02T09:50:17;31.93;;;14.10;;
3625;SDS011;1827;50.534;8.316;2024-03-02T09:52:49;32.40;;;14.63;;
3625;SDS011;1827;50.534;8.316;2024-03-02T09:55:15;30.67;;;13.50;;
3625;SDS011;1827;50.534;8.316;2024-03-02T09:57:43;29.37;;;13.50;;
3625;SDS011;1827;50.534;8.316;2024-03-02T10:00:10;34.93;;;14.10;;
3625;SDS011;1827;50.534;8.316;2024-03-02T10:02:43;29.40;;;12.83;;
3625;SDS011;1827;50.534;8.316;2024-03-02T10:05:09;31.60;;;12.80;;
3625;SDS011;1827;50.534;8.316;2024-03-02T10:07:37;29.03;;;12.23;;
3625;SDS011;1827;50.534;8.316;2024-03-02T10:10:12;27.87;;;11.80;;
3625;SDS011;1827;50.534;8.316;2024-03-02T10:12:39;29.83;;;12.60;;
3625;SDS011;1827;50.534;8.316;2024-03-02T10:15:05;30.47;;;11.60;;
3625;SDS011;1827;50.534;8.316;2024-03-02T10:17:34;31.03;;;12.50;;
3625;SDS011;1827;50.534;8.316;2024-03-02T10:20:21;29.10;;;12.60;;
3625;SDS011;1827;50.534;8.316;2024-03-02T10:22:46;29.23;;;12.30;;
3625;SDS011;1827;50.534;8.316;2024-03-02T10:25:27;31.93;;;12.37;;
3625;SDS011;1827;50.534;8.316;2024-03-02T10:28:00;30.23;;;12.70;;
3625;SDS011;1827;50.534;8.316;2024-03-02T10:30:27;32.80;;;12.43;;
3625;SDS011;1827;50.534;8.316;2024-03-02T10:32:54;32.70;;;12.50;;
3625;SDS011;1827;50.534;8.316;2024-03-02T10:35:23;30.67;;;12.10;;
3625;SDS011;1827;50.534;8.316;2024-03-02T10:37:51;28.13;;;12.00;;
3625;SDS011;1827;50.534;8.316;2024-03-02T10:40:18;29.80;;;12.17;;
3625;SDS011;1827;50.534;8.316;2024-03-02T10:42:47;29.63;;;11.97;;
3625;SDS011;1827;50.534;8.316;2024-03-02T10:45:17;31.20;;;11.73;;
3625;SDS011;1827;50.534;8.316;2024-03-02T10:47:46;29.63;;;12.17;;
3625;SDS011;1827;50.534;8.316;2024-03-02T10:50:12;27.47;;;10.53;;
3625;SDS011;1827;50.534;8.316;2024-03-02T10:52:38;30.53;;;10.97;;
3625;SDS011;1827;50.534;8.316;2024-03-02T10:55:08;28.70;;;10.93;;
3625;SDS011;1827;50.534;8.316;2024-03-02T10:57:51;30.73;;;10.73;;
3625;SDS011;1827;50.534;8.316;2024-03-02T11:00:23;28.57;;;11.37;;
3625;SDS011;1827;50.534;8.316;2024-03-02T11:03:27;28.50;;;9.83;;
3625;SDS011;1827;50.534;8.316;2024-03-02T11:05:46;27.67;;;10.20;;
3625;SDS011;1827;50.534;8.316;2024-03-02T11:08:13;26.33;;;10.13;;
3625;SDS011;1827;50.534;8.316;2024-03-02T11:10:51;25.10;;;9.70;;
3625;SDS011;1827;50.534;8.316;2024-03-02T11:13:22;42.10;;;17.83;;
3625;SDS011;1827;50.534;8.316;2024-03-02T11:15:58;25.70;;;9.47;;
3625;SDS011;1827;50.534;8.316;2024-03-02T11:18:29;24.30;;;8.97;;
3625;SDS011;1827;50.534;8.316;2024-03-02T11:20:55;27.20;;;10.70;;
3625;SDS011;1827;50.534;8.316;2024-03-02T11:23:31;30.40;;;10.73;;
3625;SDS011;1827;50.534;8.316;2024-03-02T11:26:17;24.70;;;9.67;;
3625;SDS011;1827;50.534;8.316;2024-03-02T11:28:46;29.13;;;9.60;;
3625;SDS011;1827;50.534;8.316;2024-03-02T11:31:14;23.67;;;8.10;;
3625;SDS011;1827;50.534;8.316;2024-03-02T11:33:41;23.40;;;7.43;;
3625;SDS011;1827;50.534;8.316;2024-03-02T11:36:08;23.07;;;7.70;;
3625;SDS011;1827;50.534;8.316;2024-03-02T11:38:34;21.17;;;7.20;;
3625;SDS011;1827;50.534;8.316;2024-03-02T11:41:01;22.73;;;7.33;;
3625;SDS011;1827;50.534;8.316;2024-03-02T11:43:32;23.13;;;7.03;;
3625;SDS011;1827;50.534;8.316;2024-03-02T11:46:00;21.07;;;6.70;;
3625;SDS011;1827;50.534;8.316;2024-03-02T11:48:29;20.23;;;6.00;;
3625;SDS011;1827;50.534;8.316;2024-03-02T11:50:57;18.30;;;5.57;;
3625;SDS011;1827;50.534;8.316;2024-03-02T11:53:26;17.67;;;4.90;;
3625;SDS011;1827;50.534;8.316;2024-03-02T11:55:57;19.00;;;5.10;;
3625;SDS011;1827;50.534;8.316;2024-03-02T11:58:24;18.70;;;5.40;;
3625;SDS011;1827;50.534;8.316;2024-03-02T12:00:53;17.20;;;4.50;;
3625;SDS011;1827;50.534;8.316;2024-03-02T12:03:21;18.60;;;4.70;;
3625;SDS011;1827;50.534;8.316;2024-03-02T12:05:49;21.43;;;5.80;;
3625;SDS011;1827;50.534;8.316;2024-03-02T12:08:16;20.63;;;5.27;;
3625;SDS011;1827;50.534;8.316;2024-03-02T12:10:42;18.47;;;5.27;;
3625;SDS011;1827;50.534;8.316;2024-03-02T12:13:09;19.37;;;4.83;;
3625;SDS011;1827;50.534;8.316;2024-03-02T12:15:37;19.67;;;4.10;;
3625;SDS011;1827;50.534;8.316;2024-03-02T12:20:32;16.57;;;3.63;;
3625;SDS011;1827;50.534;8.316;2024-03-02T12:22:59;14.77;;;2.77;;
3625;SDS011;1827;50.534;8.316;2024-03-02T12:25:27;15.47;;;2.73;;
3625;SDS011;1827;50.534;8.316;2024-03-02T12:27:57;14.97;;;2.90;;
3625;SDS011;1827;50.534;8.316;2024-03-02T12:30:26;15.53;;;3.10;;
3625;SDS011;1827;50.534;8.316;2024-03-02T12:32:54;14.70;;;2.33;;
3625;SDS011;1827;50.534;8.316;2024-03-02T12:35:20;13.63;;;1.80;;
3625;SDS011;1827;50.534;8.316;2024-03-02T12:37:50;12.90;;;1.60;;
3625;SDS011;1827;50.534;8.316;2024-03-02T12:40:17;19.60;;;1.40;;
3625;SDS011;1827;50.534;8.316;2024-03-02T12:42:44;16.20;;;1.40;;
3625;SDS011;1827;50.534;8.316;2024-03-02T12:45:11;12.87;;;1.40;;
3625;SDS011;1827;50.534;8.316;2024-03-02T12:47:39;13.03;;;1.43;;
3625;SDS011;1827;50.534;8.316;2024-03-02T12:50:07;12.60;;;1.20;;
3625;SDS011;1827;50.534;8.316;2024-03-02T12:52:34;13.37;;;1.70;;
3625;SDS011;1827;50.534;8.316;2024-03-02T12:55:04;14.10;;;1.63;;
3625;SDS011;1827;50.534;8.316;2024-03-02T12:57:31;12.53;;;1.20;;
3625;SDS011;1827;50.534;8.316;2024-03-02T13:00:03;12.80;;;1.47;;
3625;SDS011;1827;50.534;8.316;2024-03-02T13:02:42;13.10;;;1.40;;
3625;SDS011;1827;50.534;8.316;2024-03-02T13:05:08;12.97;;;1.37;;
3625;SDS011;1827;50.534;8.316;2024-03-02T13:07:36;15.00;;;1.40;;
3625;SDS011;1827;50.534;8.316;2024-03-02T13:10:06;12.53;;;1.30;;
3625;SDS011;1827;50.534;8.316;2024-03-02T13:12:35;13.10;;;1.50;;
3625;SDS011;1827;50.534;8.316;2024-03-02T13:15:02;13.00;;;1.23;;
3625;SDS011;1827;50.534;8.316;2024-03-02T13:17:29;12.37;;;1.20;;
3625;SDS011;1827;50.534;8.316;2024-03-02T13:19:58;12.50;;;1.23;;
3625;SDS011;1827;50.534;8.316;2024-03-02T13:22:25;13.77;;;1.23;;
3625;SDS011;1827;50.534;8.316;2024-03-02T13:24:52;12.30;;;1.10;;
3625;SDS011;1827;50.534;8.316;2024-03-02T13:27:21;12.37;;;1.10;;
3625;SDS011;1827;50.534;8.316;2024-03-02T13:29:47;12.40;;;1.20;;
3625;SDS011;1827;50.534;8.316;2024-03-02T13:32:14;12.40;;;1.20;;
3625;SDS011;1827;50.534;8.316;2024-03-02T13:34:40;12.60;;;1.20;;
3625;SDS011;1827;50.534;8.316;2024-03-02T13:37:08;12.60;;;1.27;;
3625;SDS011;1827;50.534;8.316;2024-03-02T13:39:35;13.50;;;1.40;;
3625;SDS011;1827;50.534;8.316;2024-03-02T13:42:10;12.13;;;1.30;;
3625;SDS011;1827;50.534;8.316;2024-03-02T13:44:40;12.57;;;1.30;;
3625;SDS011;1827;50.534;8.316;2024-03-02T13:47:09;13.33;;;1.37;;
3625;SDS011;1827;50.534;8.316;2024-03-02T13:49:35;12.53;;;1.30;;
3625;SDS011;1827;50.534;8.316;2024-03-02T13:52:05;14.13;;;1.60;;
3625;SDS011;1827;50.534;8.316;2024-03-02T13:54:45;12.77;;;1.60;;
3625;SDS011;1827;50.534;8.316;2024-03-02T13:57:12;13.00;;;1.30;;
3625;SDS011;1827;50.534;8.316;2024-03-02T13:59:38;12.87;;;1.70;;
3625;SDS011;1827;50.534;8.316;2024-03-02T14:02:05;14.00;;;1.90;;
3625;SDS011;1827;50.534;8.316;2024-03-02T14:04:32;14.87;;;1.90;;
3625;SDS011;1827;50.534;8.316;2024-03-02T14:07:02;14.00;;;1.70;;
3625;SDS011;1827;50.534;8.316;2024-03-02T14:09:28;12.70;;;1.50;;
3625;SDS011;1827;50.534;8.316;2024-03-02T14:11:54;13.40;;;1.30;;
3625;SDS011;1827;50.534;8.316;2024-03-02T14:14:22;12.67;;;1.40;;
3625;SDS011;1827;50.534;8.316;2024-03-02T14:16:48;13.47;;;1.57;;
3625;SDS011;1827;50.534;8.316;2024-03-02T14:19:14;12.90;;;1.60;;
3625;SDS011;1827;50.534;8.316;2024-03-02T14:21:40;13.10;;;1.50;;
3625;SDS011;1827;50.534;8.316;2024-03-02T14:24:06;12.73;;;1.50;;
3625;SDS011;1827;50.534;8.316;2024-03-02T14:26:33;12.90;;;1.60;;
3625;SDS011;1827;50.534;8.316;2024-03-02T14:28:59;13.53;;;1.53;;
3625;SDS011;1827;50.534;8.316;2024-03-02T14:31:28;13.20;;;1.60;;
3625;SDS011;1827;50.534;8.316;2024-03-02T14:33:54;13.83;;;1.90;;
3625;SDS011;1827;50.534;8.316;2024-03-02T14:36:20;16.87;;;2.90;;
3625;SDS011;1827;50.534;8.316;2024-03-02T14:38:47;14.63;;;2.93;;
3625;SDS011;1827;50.534;8.316;2024-03-02T14:41:13;14.77;;;3.00;;
3625;SDS011;1827;50.534;8.316;2024-03-02T14:43:39;15.03;;;2.97;;
3625;SDS011;1827;50.534;8.316;2024-03-02T14:46:09;15.50;;;3.20;;
3625;SDS011;1827;50.534;8.316;2024-03-02T14:48:35;14.50;;;2.50;;
3625;SDS011;1827;50.534;8.316;2024-03-02T14:51:03;16.50;;;2.90;;
3625;SDS011;1827;50.534;8.316;2024-03-02T14:53:29;15.57;;;2.93;;
3625;SDS011;1827;50.534;8.316;2024-03-02T14:55:55;15.47;;;2.67;;
3625;SDS011;1827;50.534;8.316;2024-03-02T14:58:23;17.67;;;4.97;;
3625;SDS011;1827;50.534;8.316;2024-03-02T15:00:50;15.83;;;3.30;;
3625;SDS011;1827;50.534;8.316;2024-03-02T15:03:16;16.50;;;4.10;;
3625;SDS011;1827;50.534;8.316;2024-03-02T15:05:43;26.60;;;3.60;;
3625;SDS011;1827;50.534;8.316;2024-03-02T15:08:10;20.40;;;3.07;;
3625;SDS011;1827;50.534;8.316;2024-03-02T15:10:36;16.30;;;3.40;;
3625;SDS011;1827;50.534;8.316;2024-03-02T15:13:02;15.10;;;3.23;;
3625;SDS011;1827;50.534;8.316;2024-03-02T15:15:28;15.37;;;3.00;;
3625;SDS011;1827;50.534;8.316;2024-03-02T15:17:54;15.03;;;2.60;;
3625;SDS011;1827;50.534;8.316;2024-03-02T15:20:20;14.00;;;2.40;;
3625;SDS011;1827;50.534;8.316;2024-03-02T15:22:46;14.10;;;2.23;;
3625;SDS011;1827;50.534;8.316;2024-03-02T15:25:12;15.77;;;2.77;;
3625;SDS011;1827;50.534;8.316;2024-03-02T15:27:41;15.70;;;2.57;;
3625;SDS011;1827;50.534;8.316;2024-03-02T15:30:09;15.53;;;2.43;;